createdAt,value
2022-09-17T00:01:41.045Z,24.55
2022-09-17T00:04:05.559Z,24.33
2022-09-17T00:06:28.502Z,24.29
2022-09-17T00:08:51.874Z,24.47
2022-09-17T00:11:16.083Z,24.39
2022-09-17T00:13:39.113Z,24.22
2022-09-17T00:16:02.794Z,24.21
2022-09-17T00:18:27.348Z,24.44
2022-09-17T00:20:50.562Z,24.40
2022-09-17T00:23:13.990Z,24.26
2022-09-17T00:25:39.101Z,24.28
2022-09-17T00:28:02.700Z,24.61
2022-09-17T00:30:25.893Z,24.83
2022-09-17T00:32:49.065Z,24.90
2022-09-17T00:35:13.626Z,24.99
2022-09-17T00:37:36.771Z,25.01
2022-09-17T00:40:00.001Z,24.78
2022-09-17T00:42:23.502Z,24.63
2022-09-17T00:44:49.622Z,24.32
2022-09-17T00:47:19.368Z,24.09
2022-09-17T00:49:42.492Z,24.36
2022-09-17T00:52:08.237Z,24.29
2022-09-17T00:54:31.392Z,24.31
2022-09-17T00:56:54.569Z,24.62
2022-09-17T00:59:17.802Z,24.50
2022-09-17T01:01:40.964Z,24.56
2022-09-17T01:04:04.656Z,24.74
2022-09-17T01:06:33.159Z,24.74
2022-09-17T01:09:05.148Z,24.66
2022-09-17T01:11:38.853Z,24.37
2022-09-17T01:14:08.720Z,24.54
2022-09-17T01:16:35.830Z,24.44
2022-09-17T01:19:04.825Z,24.49
2022-09-17T01:21:54.532Z,24.37
2022-09-17T01:24:52.227Z,24.33
2022-09-17T01:27:36.920Z,24.67
2022-09-17T01:30:10.677Z,24.91
2022-09-17T01:32:37.457Z,24.95
2022-09-17T01:35:02.562Z,24.53
2022-09-17T01:37:30.738Z,24.76
2022-09-17T01:39:58.073Z,24.57
2022-09-17T01:42:25.327Z,24.37
2022-09-17T01:44:53.567Z,24.32
2022-09-17T01:47:21.071Z,24.30
2022-09-17T01:49:46.074Z,24.28
2022-09-17T01:52:09.813Z,24.38
2022-09-17T01:54:38.047Z,24.61
2022-09-17T01:57:04.778Z,24.80
2022-09-17T01:59:28.709Z,24.82
2022-09-17T02:01:53.281Z,24.52
2022-09-17T02:04:18.689Z,24.72
2022-09-17T02:06:44.494Z,24.59
2022-09-17T02:09:12.599Z,24.60
2022-09-17T02:11:38.592Z,24.70
2022-09-17T02:14:03.936Z,24.91
2022-09-17T02:16:29.174Z,24.92
2022-09-17T02:18:56.505Z,24.65
2022-09-17T02:21:23.280Z,24.65
2022-09-17T02:23:50.121Z,24.54
2022-09-17T02:26:14.005Z,24.58
2022-09-17T02:28:41.485Z,24.62
2022-09-17T02:31:04.863Z,24.67
2022-09-17T02:33:28.187Z,24.75
2022-09-17T02:35:51.321Z,24.87
2022-09-17T02:38:14.563Z,25.04
2022-09-17T02:40:41.458Z,25.11
2022-09-17T02:43:09.752Z,25.13
2022-09-17T02:45:39.402Z,25.22
2022-09-17T02:48:21.713Z,25.28
2022-09-17T02:51:03.131Z,25.31
2022-09-17T02:53:33.203Z,25.31
2022-09-17T02:56:01.930Z,25.31
2022-09-17T02:58:27.289Z,24.78
2022-09-17T03:00:50.494Z,24.51
2022-09-17T03:03:14.602Z,24.53
2022-09-17T03:05:37.999Z,24.42
2022-09-17T03:08:01.231Z,24.47
2022-09-17T03:10:24.424Z,24.58
2022-09-17T03:12:48.971Z,24.45
2022-09-17T03:15:12.232Z,24.38
2022-09-17T03:17:35.421Z,24.35
2022-09-17T03:19:58.708Z,24.58
2022-09-17T03:22:21.857Z,24.36
2022-09-17T03:24:45.188Z,24.52
2022-09-17T03:27:08.312Z,24.64
2022-09-17T03:29:32.833Z,24.42
2022-09-17T03:31:55.982Z,24.58
2022-09-17T03:34:19.640Z,24.43
2022-09-17T03:36:42.809Z,24.15
2022-09-17T03:39:06.138Z,24.09
2022-09-17T03:41:29.430Z,23.92
2022-09-17T03:43:52.658Z,23.93
2022-09-17T03:46:17.271Z,24.02
2022-09-17T03:48:40.469Z,24.26
2022-09-17T03:51:04.108Z,24.45
2022-09-17T03:53:27.217Z,24.32
2022-09-17T03:55:50.834Z,24.05
2022-09-17T03:58:14.000Z,24.08
2022-09-17T04:00:38.105Z,24.02
2022-09-17T04:03:02.760Z,24.34
2022-09-17T04:05:26.094Z,24.56
2022-09-17T04:07:49.346Z,24.37
2022-09-17T04:10:12.492Z,24.14
2022-09-17T04:12:35.659Z,24.36
2022-09-17T04:14:58.829Z,24.47
2022-09-17T04:17:21.946Z,24.55
2022-09-17T04:19:46.568Z,24.46
2022-09-17T04:22:09.698Z,24.34
2022-09-17T04:24:32.881Z,24.49
2022-09-17T04:26:56.016Z,24.34
2022-09-17T04:29:19.243Z,24.21
2022-09-17T04:31:42.450Z,24.28
2022-09-17T04:34:05.911Z,24.25
2022-09-17T04:36:30.443Z,24.54
2022-09-17T04:38:53.649Z,24.69
2022-09-17T04:41:16.927Z,24.78
2022-09-17T04:43:40.109Z,24.89
2022-09-17T04:46:03.256Z,24.96
2022-09-17T04:48:26.434Z,24.74
2022-09-17T04:50:49.623Z,24.61
2022-09-17T04:53:14.410Z,24.57
2022-09-17T04:55:37.613Z,24.59
2022-09-17T04:58:00.750Z,24.82
2022-09-17T05:00:24.258Z,24.73
2022-09-17T05:02:48.293Z,24.70
2022-09-17T05:05:11.500Z,24.57
2022-09-17T05:07:34.709Z,24.48
2022-09-17T05:09:59.247Z,24.77
2022-09-17T05:12:22.526Z,24.79
2022-09-17T05:14:45.701Z,24.74
2022-09-17T05:17:08.877Z,24.82
2022-09-17T05:19:32.332Z,25.02
2022-09-17T05:21:55.444Z,25.15
2022-09-17T05:24:18.685Z,25.22
2022-09-17T05:26:43.277Z,25.29
2022-09-17T05:29:06.609Z,25.36
2022-09-17T05:31:29.904Z,25.40
2022-09-17T05:33:53.117Z,25.45
2022-09-17T05:36:16.372Z,25.47
2022-09-17T05:38:39.537Z,25.47
2022-09-17T05:41:05.404Z,25.24
2022-09-17T05:43:30.014Z,25.10
2022-09-17T05:45:54.363Z,25.26
2022-09-17T05:48:17.593Z,25.23
2022-09-17T05:50:41.395Z,25.37
2022-09-17T05:53:05.365Z,25.40
2022-09-17T05:55:28.725Z,25.44
2022-09-17T05:57:51.954Z,25.41
2022-09-17T06:00:16.957Z,25.35
2022-09-17T06:02:40.245Z,25.48
2022-09-17T06:05:03.991Z,25.56
2022-09-17T06:07:27.142Z,25.62
2022-09-17T06:09:50.286Z,25.68
2022-09-17T06:12:13.553Z,25.72
2022-09-17T06:14:36.701Z,25.76
2022-09-17T06:17:01.242Z,25.78
2022-09-17T06:19:24.444Z,25.80
2022-09-17T06:21:48.347Z,25.83
2022-09-17T06:24:11.686Z,25.85
2022-09-17T06:26:34.912Z,25.88
2022-09-17T06:29:00.380Z,25.89
2022-09-17T06:31:23.628Z,25.90
2022-09-17T06:33:49.289Z,25.92
2022-09-17T06:36:14.452Z,25.93
2022-09-17T06:38:38.026Z,25.95
2022-09-17T06:41:01.462Z,25.97
2022-09-17T06:43:24.858Z,25.98
2022-09-17T06:45:53.047Z,25.99
2022-09-17T06:48:16.302Z,26.00
2022-09-17T06:50:42.851Z,26.02
2022-09-17T06:53:06.338Z,26.04
2022-09-17T06:55:29.483Z,26.06
2022-09-17T06:57:52.721Z,26.06
2022-09-17T07:00:16.292Z,26.08
2022-09-17T07:02:39.733Z,26.08
2022-09-17T07:05:02.879Z,26.08
2022-09-17T07:07:27.444Z,26.09
2022-09-17T07:09:50.653Z,26.09
2022-09-17T07:12:14.075Z,26.10
2022-09-17T07:14:37.357Z,26.12
2022-09-17T07:17:00.502Z,26.14
2022-09-17T07:19:23.735Z,26.15
2022-09-17T07:21:49.112Z,26.16
2022-09-17T07:24:13.735Z,26.17
2022-09-17T07:26:36.941Z,26.17
2022-09-17T07:29:00.166Z,26.19
2022-09-17T07:31:23.611Z,26.19
2022-09-17T07:33:46.835Z,26.20
2022-09-17T07:36:12.258Z,26.22
2022-09-17T07:38:35.464Z,26.24
2022-09-17T07:41:00.553Z,26.25
2022-09-17T07:43:23.775Z,26.26
2022-09-17T07:45:47.000Z,26.27
2022-09-17T07:48:10.153Z,26.28
2022-09-17T07:50:34.209Z,26.28
2022-09-17T07:52:57.477Z,26.28
2022-09-17T07:55:20.624Z,26.29
2022-09-17T07:57:45.243Z,26.30
2022-09-17T08:00:09.681Z,26.31
2022-09-17T08:02:35.752Z,26.32
2022-09-17T08:04:59.122Z,26.32
2022-09-17T08:07:22.289Z,26.32
2022-09-17T08:09:45.498Z,26.33
2022-09-17T08:12:09.189Z,26.33
2022-09-17T08:14:33.816Z,26.32
2022-09-17T08:16:56.947Z,26.34
2022-09-17T08:19:20.361Z,26.34
2022-09-17T08:21:43.597Z,26.35
2022-09-17T08:24:07.198Z,26.36
2022-09-17T08:26:30.394Z,26.36
2022-09-17T08:28:55.071Z,26.38
2022-09-17T08:31:20.244Z,26.38
2022-09-17T08:33:43.645Z,26.41
2022-09-17T08:36:07.406Z,26.40
2022-09-17T08:38:35.701Z,26.41
2022-09-17T08:41:06.043Z,26.41
2022-09-17T08:43:29.272Z,26.35
2022-09-17T08:45:55.090Z,26.45
2022-09-17T08:48:20.067Z,26.45
2022-09-17T08:50:43.249Z,26.45
2022-09-17T08:53:27.427Z,26.44
2022-09-17T08:55:53.135Z,26.45
2022-09-17T08:58:40.275Z,26.44
2022-09-17T09:01:09.009Z,26.46
2022-09-17T09:03:40.791Z,26.47
2022-09-17T09:06:08.485Z,26.48
2022-09-17T09:08:35.423Z,26.48
2022-09-17T09:11:01.037Z,26.49
2022-09-17T09:13:28.497Z,26.49
2022-09-17T09:15:54.710Z,26.50
2022-09-17T09:18:19.961Z,26.49
2022-09-17T09:20:49.723Z,26.49
2022-09-17T09:23:16.659Z,26.50
2022-09-17T09:25:42.542Z,26.52
2022-09-17T09:28:12.233Z,26.51
2022-09-17T09:30:42.566Z,26.50
2022-09-17T09:33:08.615Z,26.50
2022-09-17T09:35:34.085Z,26.51
2022-09-17T09:38:02.551Z,26.42
2022-09-17T09:40:33.416Z,26.51
2022-09-17T09:42:56.691Z,26.52
2022-09-17T09:45:24.582Z,26.52
2022-09-17T09:47:56.163Z,26.51
2022-09-17T09:50:25.590Z,26.52
2022-09-17T09:52:58.690Z,26.46
2022-09-17T09:55:34.160Z,26.49
2022-09-17T09:58:00.389Z,26.51
2022-09-17T10:00:29.000Z,26.51
2022-09-17T10:02:52.224Z,26.52
2022-09-17T10:05:15.813Z,26.52
2022-09-17T10:07:44.724Z,26.55
2022-09-17T10:10:09.925Z,26.55
2022-09-17T10:12:34.565Z,26.56
2022-09-17T10:14:57.684Z,26.58
2022-09-17T10:17:22.383Z,26.57
2022-09-17T10:19:45.718Z,26.56
2022-09-17T10:22:24.983Z,26.54
2022-09-17T10:24:48.392Z,26.55
2022-09-17T10:27:14.545Z,26.54
2022-09-17T10:29:39.423Z,26.53
2022-09-17T10:32:06.886Z,26.52
2022-09-17T10:34:30.592Z,26.51
2022-09-17T10:36:53.816Z,26.52
2022-09-17T10:39:36.423Z,26.50
2022-09-17T10:42:00.096Z,26.48
2022-09-17T10:44:24.093Z,26.48
2022-09-17T10:46:48.748Z,26.47
2022-09-17T10:49:12.792Z,26.47
2022-09-17T10:51:35.957Z,26.46
2022-09-17T10:54:27.613Z,26.47
2022-09-17T10:56:52.591Z,26.47
2022-09-17T10:59:30.562Z,26.46
2022-09-17T11:02:00.363Z,26.46
2022-09-17T11:04:27.271Z,26.47
2022-09-17T11:07:03.966Z,26.46
2022-09-17T11:09:32.873Z,26.49
2022-09-17T11:12:02.402Z,26.42
2022-09-17T11:14:47.094Z,26.50
2022-09-17T11:17:14.942Z,26.49
2022-09-17T11:19:42.225Z,26.48
2022-09-17T11:22:07.487Z,26.49
2022-09-17T11:24:52.794Z,26.48
2022-09-17T11:27:28.394Z,26.48
2022-09-17T11:30:10.835Z,26.49
2022-09-17T11:33:15.963Z,26.50
2022-09-17T11:35:40.371Z,26.50
2022-09-17T11:38:04.370Z,26.51
2022-09-17T11:40:33.534Z,26.51
2022-09-17T11:42:58.128Z,26.51
2022-09-17T11:45:22.255Z,26.49
2022-09-17T11:47:47.405Z,26.51
2022-09-17T11:50:18.768Z,26.51
2022-09-17T11:52:43.254Z,26.50
2022-09-17T11:55:10.862Z,26.50
2022-09-17T11:57:34.985Z,26.50
2022-09-17T12:00:01.333Z,26.49
2022-09-17T12:02:26.533Z,26.46
2022-09-17T12:04:54.962Z,26.48
2022-09-17T12:07:29.374Z,26.50
2022-09-17T12:09:55.330Z,26.50
2022-09-17T12:12:44.793Z,26.48
2022-09-17T12:15:05.117Z,26.47
2022-09-17T12:17:31.519Z,26.49
2022-09-17T12:19:56.261Z,26.51
2022-09-17T12:22:20.698Z,26.51
2022-09-17T12:24:45.548Z,26.55
2022-09-17T12:27:17.147Z,26.57
2022-09-17T12:30:05.931Z,26.58
2022-09-17T12:32:43.385Z,26.58
2022-09-17T12:35:11.548Z,26.58
2022-09-17T12:37:37.128Z,26.59
2022-09-17T12:40:16.947Z,26.60
2022-09-17T12:42:49.081Z,26.58
2022-09-17T12:45:21.745Z,26.60
2022-09-17T12:48:03.145Z,26.59
2022-09-17T12:50:31.433Z,26.61
2022-09-17T12:53:08.118Z,26.62
2022-09-17T12:55:43.505Z,26.61
2022-09-17T12:58:11.512Z,26.61
2022-09-17T13:00:39.001Z,26.53
2022-09-17T13:03:05.213Z,26.62
2022-09-17T13:05:55.036Z,26.62
2022-09-17T13:08:44.532Z,26.62
2022-09-17T13:11:42.831Z,26.63
2022-09-17T13:14:07.721Z,26.62
2022-09-17T13:16:35.117Z,26.59
2022-09-17T13:19:15.400Z,26.61
2022-09-17T13:21:40.821Z,26.62
2022-09-17T13:24:04.015Z,26.61
2022-09-17T13:26:35.155Z,26.61
2022-09-17T13:28:59.869Z,26.57
2022-09-17T13:31:23.440Z,26.58
2022-09-17T13:33:51.455Z,26.56
2022-09-17T13:36:44.923Z,26.55
2022-09-17T13:39:09.055Z,26.40
2022-09-17T13:41:34.191Z,26.30
2022-09-17T13:43:57.659Z,26.28
2022-09-17T13:46:24.858Z,26.23
2022-09-17T13:48:50.480Z,26.00
2022-09-17T13:51:53.909Z,25.38
2022-09-17T13:54:17.346Z,25.22
2022-09-17T13:56:43.066Z,25.13
2022-09-17T13:59:08.166Z,25.18
2022-09-17T14:02:00.497Z,25.22
2022-09-17T14:04:35.486Z,25.29
2022-09-17T14:06:59.640Z,25.34
2022-09-17T14:09:48.622Z,25.25
2022-09-17T14:12:44.606Z,25.27
2022-09-17T14:15:37.085Z,25.28
2022-09-17T14:18:02.770Z,25.24
2022-09-17T14:20:26.404Z,25.26
2022-09-17T14:22:56.238Z,25.19
2022-09-17T14:25:19.639Z,25.17
2022-09-17T14:27:50.970Z,25.22
2022-09-17T14:30:15.991Z,25.27
2022-09-17T14:32:42.350Z,25.27
2022-09-17T14:35:20.144Z,25.25
2022-09-17T14:37:44.220Z,25.10
2022-09-17T14:40:10.418Z,24.98
2022-09-17T14:42:36.314Z,24.98
2022-09-17T14:45:00.478Z,24.94
2022-09-17T14:47:23.803Z,24.85
2022-09-17T14:49:47.219Z,24.79
2022-09-17T14:52:25.016Z,24.80
2022-09-17T14:54:48.172Z,24.79
2022-09-17T14:57:19.705Z,24.98
2022-09-17T14:59:47.257Z,25.12
2022-09-17T15:02:34.089Z,25.30
2022-09-17T15:04:57.422Z,25.38
2022-09-17T15:07:22.269Z,25.44
2022-09-17T15:09:45.482Z,25.29
2022-09-17T15:12:08.854Z,25.25
2022-09-17T15:14:33.013Z,25.22
2022-09-17T15:16:58.059Z,25.17
2022-09-17T15:19:23.973Z,25.20
2022-09-17T15:21:49.102Z,25.00
2022-09-17T15:24:15.836Z,24.86
2022-09-17T15:26:39.114Z,24.82
2022-09-17T15:29:02.420Z,24.88
2022-09-17T15:31:25.634Z,24.83
2022-09-17T15:33:49.101Z,24.82
2022-09-17T15:36:20.121Z,24.83
2022-09-17T15:38:44.703Z,24.83
2022-09-17T15:41:28.463Z,24.75
2022-09-17T15:43:51.962Z,24.74
2022-09-17T15:46:23.792Z,24.66
2022-09-17T15:48:47.061Z,24.76
2022-09-17T15:51:22.783Z,24.78
2022-09-17T15:53:52.190Z,24.84
2022-09-17T15:56:16.990Z,24.91
2022-09-17T15:58:54.525Z,24.94
2022-09-17T16:01:53.938Z,24.96
2022-09-17T16:04:22.016Z,24.86
2022-09-17T16:06:49.723Z,24.78
2022-09-17T16:09:37.818Z,24.71
2022-09-17T16:12:01.042Z,24.84
2022-09-17T16:14:25.549Z,24.82
2022-09-17T16:16:48.690Z,24.86
2022-09-17T16:19:11.842Z,24.74
2022-09-17T16:21:35.920Z,24.87
2022-09-17T16:23:59.395Z,24.70
2022-09-17T16:26:24.499Z,24.68
2022-09-17T16:28:47.850Z,24.87
2022-09-17T16:31:12.911Z,25.00
2022-09-17T16:33:36.108Z,24.83
2022-09-17T16:35:59.429Z,25.03
2022-09-17T16:38:22.564Z,24.91
2022-09-17T16:40:47.228Z,24.82
2022-09-17T16:43:10.487Z,25.01
2022-09-17T16:45:33.614Z,25.19
2022-09-17T16:47:58.225Z,25.23
2022-09-17T16:50:21.343Z,25.34
2022-09-17T16:52:44.769Z,25.42
2022-09-17T16:55:08.589Z,25.48
2022-09-17T16:57:31.819Z,25.50
2022-09-17T16:59:56.079Z,25.42
2022-09-17T17:02:19.270Z,25.07
2022-09-17T17:04:43.798Z,24.86
2022-09-17T17:07:06.985Z,24.90
2022-09-17T17:09:30.141Z,25.00
2022-09-17T17:11:53.328Z,25.05
2022-09-17T17:14:16.536Z,25.25
2022-09-17T17:16:40.959Z,25.25
2022-09-17T17:19:04.537Z,25.02
2022-09-17T17:21:29.083Z,24.95
2022-09-17T17:23:52.373Z,24.94
2022-09-17T17:26:16.116Z,25.04
2022-09-17T17:28:39.282Z,24.93
2022-09-17T17:31:03.044Z,24.98
2022-09-17T17:33:26.238Z,24.97
2022-09-17T17:35:49.522Z,24.98
2022-09-17T17:38:14.053Z,25.07
2022-09-17T17:40:37.325Z,25.20
2022-09-17T17:43:00.537Z,25.23
2022-09-17T17:45:23.667Z,25.37
2022-09-17T17:47:46.918Z,25.34
2022-09-17T17:50:10.685Z,25.05
2022-09-17T17:52:33.938Z,24.70
2022-09-17T17:54:58.536Z,24.85
2022-09-17T17:57:21.780Z,24.61
2022-09-17T17:59:44.936Z,24.64
2022-09-17T18:02:08.280Z,24.50
2022-09-17T18:04:31.581Z,24.51
2022-09-17T18:06:54.769Z,24.35
2022-09-17T18:09:18.011Z,24.23
2022-09-17T18:11:42.502Z,24.26
2022-09-17T18:14:05.689Z,24.22
2022-09-17T18:16:29.019Z,24.33
2022-09-17T18:18:52.185Z,24.66
2022-09-17T18:21:16.556Z,24.91
2022-09-17T18:23:40.250Z,24.65
2022-09-17T18:26:03.700Z,24.51
2022-09-17T18:28:28.433Z,24.58
2022-09-17T18:30:51.768Z,24.46
2022-09-17T18:33:14.902Z,24.40
2022-09-17T18:35:38.080Z,24.41
2022-09-17T18:38:01.259Z,24.34
2022-09-17T18:40:24.446Z,24.31
2022-09-17T18:42:49.687Z,24.39
2022-09-17T18:45:14.383Z,24.45
2022-09-17T18:47:37.591Z,24.26
2022-09-17T18:50:00.741Z,24.19
2022-09-17T18:52:23.921Z,23.97
2022-09-17T18:54:47.191Z,23.87
2022-09-17T18:57:10.326Z,23.90
2022-09-17T18:59:33.583Z,24.13
2022-09-17T19:01:58.171Z,24.28
2022-09-17T19:04:21.456Z,23.96
2022-09-17T19:06:45.199Z,23.86
2022-09-17T19:09:08.416Z,23.90
2022-09-17T19:11:31.657Z,23.95
2022-09-17T19:13:54.781Z,23.85
2022-09-17T19:16:18.130Z,23.92
2022-09-17T19:18:42.861Z,23.97
2022-09-17T19:21:07.055Z,23.91
2022-09-17T19:23:31.358Z,23.87
2022-09-17T19:25:54.360Z,23.80
2022-09-17T19:28:19.765Z,23.97
2022-09-17T19:30:42.959Z,23.97
2022-09-17T19:33:06.195Z,23.98
2022-09-17T19:35:30.749Z,23.95
2022-09-17T19:37:53.973Z,23.91
2022-09-17T19:40:17.310Z,24.07
2022-09-17T19:42:40.458Z,23.98
2022-09-17T19:45:03.716Z,23.97
2022-09-17T19:47:26.913Z,23.90
2022-09-17T19:49:52.366Z,23.84
2022-09-17T19:52:16.938Z,23.84
2022-09-17T19:54:39.874Z,24.08
2022-09-17T19:57:03.016Z,24.22
2022-09-17T19:59:28.816Z,24.40
2022-09-17T20:01:52.032Z,24.59
2022-09-17T20:04:15.284Z,24.62
2022-09-17T20:06:38.610Z,24.25
2022-09-17T20:09:03.206Z,24.21
2022-09-17T20:11:26.825Z,24.32
2022-09-17T20:13:50.102Z,24.57
2022-09-17T20:16:14.517Z,24.65
2022-09-17T20:18:37.883Z,24.62
2022-09-17T20:21:01.054Z,24.59
2022-09-17T20:23:24.227Z,24.64
2022-09-17T20:25:53.654Z,24.59
2022-09-17T20:28:17.017Z,24.57
2022-09-17T20:30:40.182Z,24.48
2022-09-17T20:33:03.357Z,24.32
2022-09-17T20:35:26.513Z,24.30
2022-09-17T20:40:33.075Z,24.14
2022-09-17T20:42:57.668Z,23.93
2022-09-17T20:45:20.880Z,23.85
2022-09-17T20:47:44.010Z,24.21
2022-09-17T20:50:08.059Z,24.41
2022-09-17T20:52:31.225Z,24.25
2022-09-17T20:54:54.388Z,24.24
2022-09-17T20:57:17.641Z,23.99
2022-09-17T20:59:52.317Z,24.02
2022-09-17T21:02:15.849Z,23.94
2022-09-17T21:04:39.120Z,23.87
2022-09-17T21:07:02.265Z,23.98
2022-09-17T21:09:25.504Z,24.00
2022-09-17T21:11:49.306Z,23.55
2022-09-17T21:14:12.495Z,23.54
2022-09-17T21:16:37.130Z,23.56
2022-09-17T21:19:02.081Z,23.56
2022-09-17T21:21:25.466Z,23.66
2022-09-17T21:23:48.603Z,23.56
2022-09-17T21:26:15.626Z,23.73
2022-09-17T21:28:38.810Z,23.96
2022-09-17T21:31:06.039Z,24.08
2022-09-17T21:33:30.692Z,24.19
2022-09-17T21:35:53.893Z,23.94
2022-09-17T21:38:18.681Z,23.98
2022-09-17T21:40:44.034Z,24.28
2022-09-17T21:43:08.797Z,24.49
2022-09-17T21:45:31.729Z,24.61
2022-09-17T21:47:54.913Z,24.68
2022-09-17T21:50:19.539Z,24.77
2022-09-17T21:52:42.734Z,24.82
2022-09-17T21:55:06.795Z,24.87
2022-09-17T21:57:30.023Z,24.89
2022-09-17T21:59:53.230Z,24.90
2022-09-17T22:02:17.038Z,24.91
2022-09-17T22:04:40.218Z,24.80
2022-09-17T22:07:04.733Z,24.10
2022-09-17T22:09:30.126Z,24.16
2022-09-17T22:11:53.758Z,24.51
2022-09-17T22:14:19.381Z,24.75
2022-09-17T22:16:43.704Z,24.88
2022-09-17T22:19:07.185Z,24.93
2022-09-17T22:21:31.134Z,24.97
2022-09-17T22:23:56.942Z,24.72
2022-09-17T22:26:20.814Z,24.70
2022-09-17T22:28:44.084Z,24.69
2022-09-17T22:31:08.227Z,24.33
2022-09-17T22:33:33.410Z,24.39
2022-09-17T22:36:03.034Z,24.01
2022-09-17T22:38:26.193Z,24.31
2022-09-17T22:40:50.792Z,24.58
2022-09-17T22:43:13.935Z,24.62
2022-09-17T22:45:37.202Z,24.66
2022-09-17T22:48:00.326Z,24.60
2022-09-17T22:50:23.547Z,24.27
2022-09-17T22:52:48.359Z,24.15
2022-09-17T22:55:11.643Z,23.99
2022-09-17T22:57:36.152Z,23.78
2022-09-17T22:59:59.391Z,23.81
2022-09-17T23:02:22.638Z,23.86
2022-09-17T23:04:45.908Z,23.59
2022-09-17T23:07:09.068Z,23.93
2022-09-17T23:09:32.441Z,24.15
2022-09-17T23:11:55.680Z,24.23
2022-09-17T23:14:20.198Z,24.09
2022-09-17T23:16:44.447Z,24.32
2022-09-17T23:19:07.638Z,24.33
2022-09-17T23:21:30.768Z,24.19
2022-09-17T23:23:54.017Z,24.32
2022-09-17T23:26:18.647Z,24.20
2022-09-17T23:28:41.929Z,24.09
2022-09-17T23:31:09.789Z,24.08
2022-09-17T23:33:33.048Z,24.18
2022-09-17T23:35:57.029Z,23.99
2022-09-17T23:38:20.353Z,23.85
2022-09-17T23:40:43.533Z,23.72
2022-09-17T23:43:06.749Z,23.58
2022-09-17T23:45:29.889Z,23.81
2022-09-17T23:47:54.441Z,23.83
2022-09-17T23:50:17.876Z,24.01
2022-09-17T23:52:41.042Z,23.95
2022-09-17T23:55:04.270Z,23.96
2022-09-17T23:57:27.809Z,23.74
2022-09-17T23:59:51.031Z,23.76
